createdAt,value
2023-05-18T00:01:19.549Z,1.02
2023-05-18T00:04:24.125Z,1.05
2023-05-18T00:07:26.126Z,1.20
2023-05-18T00:10:28.300Z,4.35
2023-05-18T00:13:31.067Z,3.08
2023-05-18T00:16:33.078Z,1.13
2023-05-18T00:19:34.937Z,0.68
2023-05-18T00:22:36.780Z,1.48
2023-05-18T00:25:38.631Z,1.27
2023-05-18T00:28:40.441Z,1.48
2023-05-18T00:31:44.437Z,0.50
2023-05-18T00:34:46.313Z,5.90
2023-05-18T00:37:48.276Z,4.25
2023-05-18T00:40:50.234Z,1.38
2023-05-18T00:43:56.146Z,1.13
2023-05-18T00:47:00.172Z,6.68
2023-05-18T00:50:02.576Z,1.02
2023-05-18T00:53:04.461Z,1.70
2023-05-18T00:56:07.057Z,4.38
2023-05-18T00:59:11.946Z,1.65
2023-05-18T01:02:14.957Z,1.02
2023-05-18T01:05:18.140Z,8.35
2023-05-18T01:08:20.075Z,4.40
2023-05-18T01:11:46.118Z,2.40
2023-05-18T01:15:03.703Z,2.05
2023-05-18T01:18:30.426Z,5.40
2023-05-18T01:21:50.129Z,1.10
2023-05-18T01:24:58.146Z,3.80
2023-05-18T01:28:06.464Z,1.33
2023-05-18T01:31:09.944Z,1.45
2023-05-18T01:34:11.829Z,1.50
2023-05-18T01:37:14.069Z,1.63
2023-05-18T01:40:16.086Z,3.20
2023-05-18T01:43:20.380Z,4.43
2023-05-18T01:46:59.904Z,2.03
2023-05-18T01:50:16.115Z,2.97
2023-05-18T01:53:27.941Z,3.17
2023-05-18T01:56:32.131Z,1.30
2023-05-18T01:59:34.354Z,1.77
2023-05-18T02:02:36.783Z,1.27
2023-05-18T02:05:38.807Z,1.67
2023-05-18T02:08:40.867Z,1.80
2023-05-18T02:11:42.811Z,1.10
2023-05-18T02:14:44.678Z,1.42
2023-05-18T02:17:47.516Z,1.50
2023-05-18T02:20:49.810Z,1.50
2023-05-18T02:23:51.646Z,1.55
2023-05-18T02:26:53.511Z,1.10
2023-05-18T02:29:55.364Z,1.27
2023-05-18T02:32:57.407Z,1.00
2023-05-18T02:35:59.302Z,1.35
2023-05-18T02:39:01.405Z,1.13
2023-05-18T02:42:03.263Z,1.50
2023-05-18T02:45:05.621Z,1.08
2023-05-18T02:48:07.543Z,1.50
2023-05-18T02:51:09.399Z,2.78
2023-05-18T02:54:11.517Z,1.23
2023-05-18T02:57:13.993Z,4.38
2023-05-18T03:00:16.881Z,0.90
2023-05-18T03:03:19.469Z,1.65
2023-05-18T03:06:26.816Z,1.17
2023-05-18T03:09:29.579Z,1.13
2023-05-18T03:12:31.428Z,1.40
2023-05-18T03:15:33.289Z,1.40
2023-05-18T03:18:35.279Z,1.35
2023-05-18T03:21:37.334Z,1.58
2023-05-18T03:24:40.795Z,1.58
2023-05-18T03:27:42.728Z,1.33
2023-05-18T03:30:44.652Z,1.77
2023-05-18T03:33:46.514Z,0.75
2023-05-18T03:36:48.316Z,1.15
2023-05-18T03:39:50.192Z,1.38
2023-05-18T03:42:52.036Z,0.95
2023-05-18T03:45:53.980Z,1.95
2023-05-18T03:48:56.098Z,1.63
2023-05-18T03:51:58.058Z,1.63
2023-05-18T03:55:04.534Z,1.02
2023-05-18T03:58:06.389Z,0.85
2023-05-18T04:01:08.608Z,1.05
2023-05-18T04:04:23.514Z,0.70
2023-05-18T04:07:25.545Z,1.27
2023-05-18T04:10:27.400Z,1.65
2023-05-18T04:13:29.392Z,2.20
2023-05-18T04:16:32.124Z,0.80
2023-05-18T04:19:37.963Z,0.85
2023-05-18T04:22:46.590Z,30.55
2023-05-18T04:25:49.617Z,3.00
2023-05-18T04:28:51.709Z,5.13
2023-05-18T04:31:59.951Z,1.10
2023-05-18T04:35:06.801Z,1.60
2023-05-18T04:38:08.674Z,1.15
2023-05-18T04:41:10.628Z,1.65
2023-05-18T04:44:14.168Z,3.45
2023-05-18T04:47:16.031Z,1.38
2023-05-18T04:50:18.059Z,1.15
2023-05-18T04:53:21.725Z,1.67
2023-05-18T04:56:23.559Z,1.10
2023-05-18T04:59:26.605Z,1.92
2023-05-18T05:02:28.584Z,1.50
2023-05-18T05:05:30.726Z,1.60
2023-05-18T05:08:32.784Z,1.02
2023-05-18T05:11:34.978Z,0.80
2023-05-18T05:14:36.914Z,1.23
2023-05-18T05:17:38.780Z,2.03
2023-05-18T05:20:40.759Z,1.02
2023-05-18T05:23:42.727Z,1.17
2023-05-18T05:26:44.727Z,0.95
2023-05-18T05:29:47.386Z,1.30
2023-05-18T05:32:49.244Z,1.05
2023-05-18T05:35:51.207Z,1.17
2023-05-18T05:38:53.098Z,1.23
2023-05-18T05:41:55.066Z,1.35
2023-05-18T05:44:56.878Z,1.15
2023-05-18T05:47:58.740Z,1.52
2023-05-18T05:51:00.917Z,1.23
2023-05-18T05:54:03.944Z,0.80
2023-05-18T05:57:06.357Z,4.05
2023-05-18T06:00:12.969Z,2.10
2023-05-18T06:03:14.890Z,1.55
2023-05-18T06:06:16.904Z,1.25
2023-05-18T06:09:18.764Z,1.55
2023-05-18T06:12:20.856Z,0.40
2023-05-18T06:15:22.815Z,1.80
2023-05-18T06:18:24.914Z,0.50
2023-05-18T06:21:26.786Z,0.60
2023-05-18T06:24:28.650Z,1.77
2023-05-18T06:27:30.571Z,1.38
2023-05-18T06:30:32.497Z,1.00
2023-05-18T06:33:34.594Z,1.40
2023-05-18T06:36:36.641Z,2.70
2023-05-18T06:39:39.408Z,0.80
2023-05-18T06:42:41.301Z,2.50
2023-05-18T06:45:43.132Z,0.93
2023-05-18T06:48:45.886Z,4.20
2023-05-18T06:51:47.783Z,1.77
2023-05-18T06:54:49.619Z,4.03
2023-05-18T06:57:52.966Z,5.32
2023-05-18T07:00:55.147Z,3.65
2023-05-18T07:03:57.177Z,3.78
2023-05-18T07:06:59.127Z,5.30
2023-05-18T07:10:01.020Z,5.55
2023-05-18T07:13:02.989Z,3.05
2023-05-18T07:16:05.066Z,2.33
2023-05-18T07:19:07.124Z,3.53
2023-05-18T07:22:09.043Z,3.03
2023-05-18T07:25:10.908Z,2.50
2023-05-18T07:28:12.819Z,4.25
2023-05-18T07:31:16.515Z,2.33
2023-05-18T07:34:18.473Z,4.35
2023-05-18T07:37:20.603Z,2.67
2023-05-18T07:40:22.485Z,2.47
2023-05-18T07:43:24.320Z,2.53
2023-05-18T07:46:26.233Z,4.88
2023-05-18T07:49:28.129Z,2.15
2023-05-18T07:52:30.020Z,2.00
2023-05-18T07:55:32.729Z,3.67
2023-05-18T07:58:36.121Z,3.28
2023-05-18T08:01:38.594Z,2.80
2023-05-18T08:04:40.787Z,2.40
2023-05-18T08:07:42.808Z,1.98
2023-05-18T08:10:44.741Z,5.25
2023-05-18T08:13:47.108Z,2.42
2023-05-18T08:16:49.183Z,8.45
2023-05-18T08:19:53.813Z,2.90
2023-05-18T08:22:56.788Z,10.68
2023-05-18T08:26:00.194Z,3.20
2023-05-18T08:29:03.816Z,5.93
2023-05-18T08:32:07.492Z,3.88
2023-05-18T08:35:10.174Z,13.85
2023-05-18T08:38:12.325Z,3.85
2023-05-18T08:41:26.687Z,2.95
2023-05-18T08:44:40.266Z,3.40
2023-05-18T08:47:42.354Z,4.13
2023-05-18T08:50:44.772Z,4.20
2023-05-18T08:53:53.878Z,2.40
2023-05-18T08:56:57.521Z,4.95
2023-05-18T09:00:01.920Z,8.23
2023-05-18T09:03:05.626Z,2.13
2023-05-18T09:06:08.000Z,3.53
2023-05-18T09:09:10.649Z,11.27
2023-05-18T09:12:13.670Z,4.78
2023-05-18T09:15:16.722Z,3.22
2023-05-18T09:18:19.114Z,5.18
2023-05-18T09:21:21.770Z,17.70
2023-05-18T09:24:24.885Z,5.50
2023-05-18T09:27:28.012Z,3.78
2023-05-18T09:30:30.056Z,4.38
2023-05-18T09:33:39.916Z,35.05
2023-05-18T09:36:43.023Z,5.13
2023-05-18T09:39:46.716Z,6.55
2023-05-18T09:42:49.739Z,3.17
2023-05-18T09:45:51.640Z,3.08
2023-05-18T09:48:55.155Z,5.47
2023-05-18T09:51:59.994Z,6.05
2023-05-18T09:55:02.054Z,1.95
2023-05-18T09:58:04.804Z,3.30
2023-05-18T10:01:06.860Z,2.55
2023-05-18T10:04:08.945Z,2.85
2023-05-18T10:07:15.612Z,4.55
2023-05-18T10:10:22.252Z,2.58
2023-05-18T10:13:27.534Z,2.13
2023-05-18T10:16:29.470Z,3.33
2023-05-18T10:19:34.910Z,3.05
2023-05-18T10:25:41.349Z,2.13
2023-05-18T10:28:47.381Z,1.92
2023-05-18T10:31:52.079Z,1.98
2023-05-18T10:34:56.437Z,2.72
2023-05-18T10:38:01.935Z,3.65
2023-05-18T10:41:06.499Z,3.40
2023-05-18T10:44:08.527Z,3.10
2023-05-18T10:47:12.095Z,3.80
2023-05-18T10:50:15.365Z,3.53
2023-05-18T10:53:22.512Z,3.72
2023-05-18T10:56:24.586Z,9.50
2023-05-18T10:59:27.779Z,3.80
2023-05-18T11:02:30.077Z,6.68
2023-05-18T11:05:32.002Z,9.82
2023-05-18T11:08:34.659Z,9.75
2023-05-18T11:11:54.226Z,10.13
2023-05-18T11:14:58.069Z,52.30
2023-05-18T11:18:15.838Z,9.90
2023-05-18T11:21:50.537Z,14.35
2023-05-18T11:24:54.282Z,10.02
2023-05-18T11:28:02.196Z,14.73
2023-05-18T11:31:04.119Z,5.75
2023-05-18T11:34:45.453Z,7.20
2023-05-18T11:37:48.387Z,13.35
2023-05-18T11:40:51.252Z,8.10
2023-05-18T11:44:15.213Z,8.43
2023-05-18T11:47:18.646Z,13.13
2023-05-18T11:50:20.643Z,12.93
2023-05-18T11:53:24.992Z,11.55
2023-05-18T11:56:33.490Z,12.70
2023-05-18T11:59:41.144Z,10.75
2023-05-18T12:02:45.770Z,10.40
2023-05-18T12:05:49.457Z,13.77
2023-05-18T12:08:52.108Z,9.73
2023-05-18T12:11:55.587Z,7.05
2023-05-18T12:14:59.771Z,8.95
2023-05-18T12:18:01.897Z,7.22
2023-05-18T12:21:07.067Z,11.48
2023-05-18T12:24:09.243Z,8.85
2023-05-18T12:27:12.281Z,10.77
2023-05-18T12:30:19.761Z,10.15
2023-05-18T12:33:24.966Z,11.88
2023-05-18T12:36:41.029Z,11.52
2023-05-18T12:39:42.966Z,11.68
2023-05-18T12:42:59.694Z,10.25
2023-05-18T12:46:03.647Z,6.55
2023-05-18T12:49:06.298Z,9.45
2023-05-18T12:52:10.727Z,7.15
2023-05-18T12:55:23.017Z,9.20
2023-05-18T12:58:26.156Z,6.45
2023-05-18T13:01:28.346Z,10.52
2023-05-18T13:04:36.175Z,5.43
2023-05-18T13:07:45.590Z,10.55
2023-05-18T13:10:58.175Z,6.20
2023-05-18T13:14:08.143Z,7.55
2023-05-18T13:17:10.098Z,9.75
2023-05-18T13:20:16.035Z,7.95
2023-05-18T13:23:24.744Z,8.70
2023-05-18T13:26:26.750Z,6.57
2023-05-18T13:29:28.670Z,12.98
2023-05-18T13:32:30.613Z,5.88
2023-05-18T13:35:32.754Z,4.90
2023-05-18T13:38:37.301Z,5.88
2023-05-18T13:41:39.214Z,9.40
2023-05-18T13:44:41.451Z,6.10
2023-05-18T13:47:45.833Z,5.80
2023-05-18T13:50:48.010Z,5.00
2023-05-18T13:53:49.956Z,5.90
2023-05-18T13:56:51.799Z,4.70
2023-05-18T13:59:53.701Z,6.13
2023-05-18T14:02:56.611Z,8.07
2023-05-18T14:05:59.076Z,4.55
2023-05-18T14:09:00.969Z,5.57
2023-05-18T14:12:05.332Z,5.47
2023-05-18T14:15:07.675Z,6.00
2023-05-18T14:18:09.620Z,4.15
2023-05-18T14:21:11.488Z,4.78
2023-05-18T14:24:15.191Z,5.05
2023-05-18T14:27:17.087Z,5.60
2023-05-18T14:30:19.103Z,4.35
2023-05-18T14:33:21.103Z,4.90
2023-05-18T14:36:23.150Z,6.03
2023-05-18T14:39:25.056Z,5.63
2023-05-18T14:42:26.881Z,5.80
2023-05-18T14:45:28.755Z,3.85
2023-05-18T14:48:31.307Z,3.53
2023-05-18T14:51:33.496Z,4.05
2023-05-18T14:54:35.507Z,5.43
2023-05-18T14:57:37.518Z,3.58
2023-05-18T15:00:39.356Z,4.13
2023-05-18T15:03:41.678Z,4.97
2023-05-18T15:06:43.588Z,11.77
2023-05-18T15:09:45.508Z,9.75
2023-05-18T15:12:47.442Z,21.67
2023-05-18T15:15:49.877Z,25.48
2023-05-18T15:18:51.868Z,7.63
2023-05-18T15:21:53.774Z,22.15
2023-05-18T15:24:55.644Z,11.23
2023-05-18T15:27:58.124Z,31.52
2023-05-18T15:31:00.093Z,17.55
2023-05-18T15:34:01.975Z,10.30
2023-05-18T15:37:03.952Z,13.77
2023-05-18T15:40:06.476Z,4.82
2023-05-18T15:43:08.730Z,5.50
2023-05-18T15:46:10.808Z,4.55
2023-05-18T15:49:12.905Z,4.43
2023-05-18T15:52:14.776Z,7.07
2023-05-18T15:55:16.646Z,4.18
2023-05-18T15:58:18.518Z,10.95
2023-05-18T16:01:20.539Z,5.97
2023-05-18T16:04:22.486Z,5.97
2023-05-18T16:07:24.375Z,4.95
2023-05-18T16:10:26.302Z,5.57
2023-05-18T16:13:28.392Z,5.40
2023-05-18T16:16:30.516Z,12.65
2023-05-18T16:19:33.961Z,6.75
2023-05-18T16:22:35.958Z,5.80
2023-05-18T16:25:37.870Z,7.18
2023-05-18T16:28:40.158Z,7.57
2023-05-18T16:31:42.161Z,4.45
2023-05-18T16:34:44.123Z,7.38
2023-05-18T16:37:46.026Z,8.13
2023-05-18T16:40:47.883Z,5.22
2023-05-18T16:43:49.779Z,6.15
2023-05-18T16:46:51.886Z,6.43
2023-05-18T16:49:53.837Z,6.28
2023-05-18T16:52:56.065Z,9.82
2023-05-18T16:55:58.026Z,7.00
2023-05-18T16:59:00.044Z,6.55
2023-05-18T17:02:03.434Z,6.95
2023-05-18T17:05:09.597Z,16.63
2023-05-18T17:08:11.615Z,5.50
2023-05-18T17:11:14.411Z,9.25
2023-05-18T17:14:16.254Z,12.73
2023-05-18T17:17:18.982Z,9.25
2023-05-18T17:20:21.413Z,12.00
2023-05-18T17:23:23.424Z,4.72
2023-05-18T17:26:25.969Z,9.82
2023-05-18T17:29:27.929Z,6.32
2023-05-18T17:32:29.873Z,7.90
2023-05-18T17:35:32.051Z,9.85
2023-05-18T17:38:34.010Z,8.68
2023-05-18T17:41:36.393Z,7.10
2023-05-18T17:44:39.380Z,10.05
2023-05-18T17:47:41.963Z,28.23
2023-05-18T17:50:45.571Z,39.45
2023-05-18T17:53:47.557Z,71.75
2023-05-18T17:56:49.498Z,59.20
2023-05-18T17:59:51.533Z,47.97
2023-05-18T18:02:54.096Z,21.30
2023-05-18T18:05:56.534Z,10.82
2023-05-18T18:08:58.976Z,22.08
2023-05-18T18:12:01.256Z,13.73
2023-05-18T18:15:03.229Z,9.18
2023-05-18T18:18:05.252Z,14.85
2023-05-18T18:21:07.539Z,13.07
2023-05-18T18:24:09.478Z,13.18
2023-05-18T18:27:11.547Z,12.98
2023-05-18T18:30:14.153Z,11.10
2023-05-18T18:33:16.125Z,7.85
2023-05-18T18:36:18.130Z,4.30
2023-05-18T18:39:20.361Z,9.82
2023-05-18T18:42:22.495Z,11.23
2023-05-18T18:45:24.445Z,6.22
2023-05-18T18:48:26.590Z,7.57
2023-05-18T18:51:30.050Z,9.68
2023-05-18T18:54:34.070Z,16.88
2023-05-18T18:57:37.457Z,9.82
2023-05-18T19:00:39.352Z,8.85
2023-05-18T19:03:41.635Z,7.22
2023-05-18T19:06:43.852Z,4.60
2023-05-18T19:09:45.843Z,8.15
2023-05-18T19:12:48.669Z,9.63
2023-05-18T19:15:51.432Z,9.20
2023-05-18T19:18:53.417Z,5.38
2023-05-18T19:21:55.337Z,14.98
2023-05-18T19:24:57.209Z,7.25
2023-05-18T19:27:59.263Z,11.45
2023-05-18T19:31:02.510Z,6.53
2023-05-18T19:34:04.801Z,7.97
2023-05-18T19:37:06.752Z,7.47
2023-05-18T19:40:09.238Z,3.80
2023-05-18T19:43:11.648Z,4.35
2023-05-18T19:46:13.860Z,6.10
2023-05-18T19:49:16.080Z,6.55
2023-05-18T19:52:19.903Z,8.05
2023-05-18T19:55:22.018Z,6.97
2023-05-18T19:58:29.097Z,3.40
2023-05-18T20:01:32.283Z,4.40
2023-05-18T20:04:34.642Z,3.28
2023-05-18T20:07:36.612Z,4.15
2023-05-18T20:10:39.020Z,3.55
2023-05-18T20:13:43.797Z,4.30
2023-05-18T20:16:45.798Z,4.13
2023-05-18T20:19:50.727Z,4.18
2023-05-18T20:22:53.468Z,3.83
2023-05-18T20:25:56.249Z,4.30
2023-05-18T20:28:58.164Z,5.32
2023-05-18T20:32:01.749Z,4.80
2023-05-18T20:35:03.700Z,5.65
2023-05-18T20:38:05.759Z,6.75
2023-05-18T20:41:10.328Z,6.80
2023-05-18T20:44:17.514Z,5.60
2023-05-18T20:47:20.796Z,5.50
2023-05-18T20:50:23.687Z,6.57
2023-05-18T20:53:26.348Z,9.10
2023-05-18T20:56:29.447Z,9.45
2023-05-18T20:59:31.476Z,10.98
2023-05-18T21:02:33.905Z,19.48
2023-05-18T21:05:36.439Z,9.88
2023-05-18T21:08:38.792Z,6.03
2023-05-18T21:11:40.694Z,5.18
2023-05-18T21:14:42.602Z,4.75
2023-05-18T21:17:44.497Z,5.30
2023-05-18T21:20:46.455Z,5.45
2023-05-18T21:23:48.335Z,6.82
2023-05-18T21:26:50.368Z,7.53
2023-05-18T21:29:52.770Z,12.55
2023-05-18T21:32:54.680Z,5.28
2023-05-18T21:35:57.715Z,10.38
2023-05-18T21:39:05.564Z,8.98
2023-05-18T21:42:09.195Z,12.93
2023-05-18T21:45:12.569Z,21.70
2023-05-18T21:48:14.565Z,9.95
2023-05-18T21:51:17.691Z,5.40
2023-05-18T21:54:19.661Z,5.90
2023-05-18T21:57:21.648Z,6.20
2023-05-18T22:00:23.746Z,6.10
2023-05-18T22:03:25.947Z,5.00
2023-05-18T22:06:28.213Z,9.25
2023-05-18T22:09:30.110Z,9.48
2023-05-18T22:12:33.292Z,7.95
2023-05-18T22:15:37.270Z,6.72
2023-05-18T22:18:39.148Z,4.93
2023-05-18T22:21:41.872Z,5.45
2023-05-18T22:24:45.073Z,4.25
2023-05-18T22:27:48.185Z,3.65
2023-05-18T22:30:51.238Z,4.70
2023-05-18T22:33:54.095Z,5.68
2023-05-18T22:36:56.130Z,6.32
2023-05-18T22:39:58.031Z,5.00
2023-05-18T22:42:59.873Z,8.07
2023-05-18T22:46:01.972Z,6.95
2023-05-18T22:49:05.478Z,6.90
2023-05-18T22:52:08.232Z,7.20
2023-05-18T22:55:13.116Z,5.57
2023-05-18T22:58:14.952Z,4.13
2023-05-18T23:01:17.010Z,5.15
2023-05-18T23:04:19.742Z,3.75
2023-05-18T23:07:24.586Z,5.03
2023-05-18T23:10:26.581Z,4.45
2023-05-18T23:13:31.004Z,4.20
2023-05-18T23:16:33.008Z,4.65
2023-05-18T23:19:36.081Z,6.05
2023-05-18T23:22:37.992Z,5.38
2023-05-18T23:25:39.834Z,5.32
2023-05-18T23:28:41.724Z,5.10
2023-05-18T23:31:43.728Z,6.53
2023-05-18T23:34:45.888Z,5.15
2023-05-18T23:37:50.132Z,4.22
2023-05-18T23:40:54.130Z,3.88
2023-05-18T23:43:57.029Z,7.18
2023-05-18T23:46:59.294Z,4.95
2023-05-18T23:50:01.453Z,4.88
2023-05-18T23:53:04.594Z,4.35
2023-05-18T23:56:07.387Z,3.17
2023-05-18T23:59:10.450Z,4.07
